Time;durP1;ratioP1;P1;durP2;ratioP2;P2;SDS_P1;SDS_P2;PMS_P1;PMS_P2;Temp;Humidity;BMP_temperature;BMP_pressure;BME280_temperature;BME280_humidity;BME280_pressure;Samples;Min_cycle;Max_cycle;Signal;HPM_P1;HPM_P2
2022/10/29 00:00:56;;;;;;;43.15;19.07;;;;;;;8.53;71.70;102219.56;1792361;80;25631;-62
2022/10/29 00:03:25;;;;;;;38.65;20.50;;;;;;;8.53;71.48;102220.91;1792382;79;25830;-62
2022/10/29 00:06:02;;;;;;;61.45;21.52;;;;;;;8.53;71.46;102215.55;1792361;80;25836;-61
2022/10/29 00:08:33;;;;;;;33.70;17.98;;;;;;;8.53;71.49;102212.01;1800937;79;25473;-62
2022/10/29 00:11:12;;;;;;;40.25;20.08;;;;;;;8.53;71.44;102212.86;1792354;79;26512;-64
2022/10/29 00:13:40;;;;;;;38.80;18.15;;;;;;;8.53;71.31;102211.52;1792538;79;26097;-62
2022/10/29 00:16:11;;;;;;;34.00;18.27;;;;;;;8.54;71.29;102224.47;1792387;78;27465;-63
2022/10/29 00:18:40;;;;;;;37.10;17.80;;;;;;;8.53;70.98;102226.27;1791892;79;25760;-62
2022/10/29 00:21:12;;;;;;;35.98;20.37;;;;;;;8.46;70.68;102215.02;1792457;80;25770;-62
2022/10/29 00:23:40;;;;;;;45.98;22.17;;;;;;;8.40;70.79;102212.66;1792852;79;25772;-62
2022/10/29 00:26:08;;;;;;;42.17;20.32;;;;;;;8.35;70.94;102209.39;1792515;80;25853;-61
2022/10/29 00:28:35;;;;;;;38.70;20.92;;;;;;;8.29;70.78;102215.95;1792875;80;28073;-62
2022/10/29 00:31:07;;;;;;;41.18;20.50;;;;;;;8.22;70.49;102208.33;1792436;79;25667;-62
2022/10/29 00:33:34;;;;;;;32.08;20.02;;;;;;;8.14;70.30;102204.27;1792148;79;25737;-62
2022/10/29 00:36:09;;;;;;;35.68;19.52;;;;;;;8.05;70.09;102200.75;1792743;80;25880;-62
2022/10/29 00:38:36;;;;;;;42.98;19.40;;;;;;;7.97;70.09;102205.67;1792045;78;25814;-62
2022/10/29 00:41:05;;;;;;;38.75;18.95;;;;;;;7.85;70.15;102207.20;1774479;80;27493;-62
2022/10/29 00:43:35;;;;;;;37.45;19.98;;;;;;;7.78;70.18;102213.85;1792816;80;25837;-62
2022/10/29 00:46:11;;;;;;;38.50;18.27;;;;;;;7.66;70.11;102204.67;1816950;78;25797;-61
2022/10/29 00:48:43;;;;;;;31.20;17.40;;;;;;;7.57;70.14;102203.81;1818649;78;25901;-62
2022/10/29 00:51:13;;;;;;;41.37;18.85;;;;;;;7.47;70.18;102200.28;1812668;78;25681;-62
2022/10/29 00:53:46;;;;;;;33.35;19.00;;;;;;;7.40;70.27;102205.55;1819079;78;28323;-62
2022/10/29 00:56:14;;;;;;;35.28;19.17;;;;;;;7.35;70.60;102192.88;1818614;78;25777;-63
2022/10/29 00:58:42;;;;;;;34.00;19.32;;;;;;;7.30;70.58;102194.95;1792093;78;25696;-62
2022/10/29 01:01:09;;;;;;;31.27;17.77;;;;;;;7.31;70.96;102196.20;1786539;79;25849;-62
2022/10/29 01:03:38;;;;;;;33.40;20.05;;;;;;;7.31;71.17;102197.53;1807130;78;25771;-62
2022/10/29 01:06:07;;;;;;;32.55;18.25;;;;;;;7.34;71.64;102188.02;1818695;78;28179;-63
2022/10/29 01:08:34;;;;;;;34.05;18.17;;;;;;;7.38;71.77;102182.48;1787277;78;25746;-62
2022/10/29 01:11:35;;;;;;;33.38;17.37;;;;;;;7.40;72.45;102181.94;1819011;78;25517;-62
2022/10/29 01:14:37;;;;;;;36.50;19.82;;;;;;;7.39;72.06;102188.23;1760567;78;26365;-63
2022/10/29 01:17:24;;;;;;;46.20;20.57;;;;;;;7.39;72.10;102177.52;1818792;78;25545;-62
2022/10/29 01:20:05;;;;;;;34.25;19.23;;;;;;;7.42;72.70;102175.55;1819194;78;27447;-62
2022/10/29 01:23:03;;;;;;;31.90;18.48;;;;;;;7.47;72.96;102173.96;1815818;78;25690;-62
2022/10/29 01:26:09;;;;;;;36.13;18.45;;;;;;;7.52;73.16;102172.77;1818829;78;25663;-61
2022/10/29 01:29:04;;;;;;;30.25;18.07;;;;;;;7.57;73.03;102169.85;1818772;78;25811;-62
2022/10/29 01:31:39;;;;;;;29.75;18.35;;;;;;;7.60;72.80;102167.48;1819234;78;25697;-63
2022/10/29 01:34:31;;;;;;;33.73;18.37;;;;;;;7.59;72.57;102173.31;1817280;78;28158;-62
2022/10/29 01:37:10;;;;;;;41.45;18.62;;;;;;;7.58;72.57;102173.38;1814035;78;25814;-63
2022/10/29 01:39:46;;;;;;;29.32;17.52;;;;;;;7.49;72.13;102173.41;1817316;78;25884;-63
2022/10/29 01:42:23;;;;;;;32.53;16.32;;;;;;;7.45;72.09;102172.72;1818652;78;25817;-62
2022/10/29 01:45:01;;;;;;;30.70;17.73;;;;;;;7.46;72.31;102171.77;1820115;78;25789;-62
2022/10/29 01:47:34;;;;;;;40.38;17.55;;;;;;;7.46;72.26;102171.77;1824048;78;27431;-62
2022/10/29 01:50:05;;;;;;;29.77;16.57;;;;;;;7.48;72.29;102175.70;1818634;78;25618;-63
2022/10/29 01:52:35;;;;;;;28.42;17.85;;;;;;;7.48;72.36;102175.24;1789118;80;25826;-62
2022/10/29 01:55:04;;;;;;;34.83;18.65;;;;;;;7.47;72.15;102176.64;1788752;80;26477;-62
2022/10/29 01:57:35;;;;;;;35.00;17.95;;;;;;;7.44;72.01;102173.66;1773005;78;25702;-61
2022/10/29 02:00:12;;;;;;;39.03;17.77;;;;;;;7.40;71.84;102175.23;1824956;78;28083;-63
2022/10/29 02:03:17;;;;;;;34.18;19.05;;;;;;;7.33;71.59;102172.89;1812243;78;25782;-61
2022/10/29 02:06:02;;;;;;;33.78;17.85;;;;;;;7.28;71.52;102176.75;1759825;80;25797;-62
2022/10/29 02:09:09;;;;;;;33.05;19.73;;;;;;;7.22;71.41;102174.41;1787911;80;25843;-62
2022/10/29 02:12:04;;;;;;;37.20;19.15;;;;;;;7.17;71.49;102173.30;1789117;80;25328;-62
2022/10/29 02:14:36;;;;;;;;;;;;;;;7.10;71.47;102171.41;1791500;80;27469;-62
2022/10/29 02:17:03;;;;;;;35.17;20.35;;;;;;;7.02;71.37;102162.43;1753958;81;25708;-62
2022/10/29 02:19:32;;;;;;;35.40;18.23;;;;;;;6.94;71.33;102163.78;1760956;80;25667;-62
2022/10/29 02:21:59;;;;;;;36.10;17.98;;;;;;;6.88;71.87;102165.81;1760762;81;26680;-61
2022/10/29 02:24:26;;;;;;;33.18;19.25;;;;;;;6.73;71.11;102162.09;1761189;80;25739;-62
2022/10/29 02:26:54;;;;;;;40.38;20.80;;;;;;;6.69;71.31;102168.55;1789386;80;27482;-63
2022/10/29 02:29:21;;;;;;;32.58;18.60;;;;;;;6.66;71.40;102166.51;1789126;80;25749;-63
2022/10/29 02:31:47;;;;;;;35.10;18.73;;;;;;;6.63;71.73;102170.66;1789448;80;25630;-62
2022/10/29 02:34:14;;;;;;;31.90;17.80;;;;;;;6.62;71.84;102170.27;1789226;80;25796;-62
2022/10/29 02:36:41;;;;;;;33.67;19.27;;;;;;;6.64;72.03;102163.04;1789619;80;25732;-62
2022/10/29 02:39:09;;;;;;;30.08;18.20;;;;;;;6.66;72.17;102161.16;1789057;80;27482;-62
2022/10/29 02:41:36;;;;;;;30.05;18.05;;;;;;;6.68;72.37;102154.78;1789477;80;26413;-62
2022/10/29 02:44:04;;;;;;;30.12;18.17;;;;;;;6.70;72.38;102162.27;1789317;80;26122;-61
2022/10/29 02:46:31;;;;;;;31.35;17.80;;;;;;;6.70;72.42;102160.93;1782720;80;25825;-61
2022/10/29 02:48:57;;;;;;;29.57;17.87;;;;;;;6.72;72.35;102157.69;1781590;80;25527;-62
2022/10/29 02:51:25;;;;;;;27.60;16.57;;;;;;;6.77;72.43;102152.59;1810204;78;28416;-62
2022/10/29 02:53:54;;;;;;;28.05;16.05;;;;;;;6.80;72.42;102160.47;1789748;79;25974;-63
2022/10/29 02:56:21;;;;;;;26.07;14.90;;;;;;;6.82;72.14;102162.57;1822294;78;25746;-62
2022/10/29 02:58:48;;;;;;;28.57;15.83;;;;;;;6.80;72.16;102157.80;1793632;78;26578;-62
2022/10/29 03:01:15;;;;;;;30.52;16.17;;;;;;;6.77;71.83;102162.80;1789914;80;25740;-61
2022/10/29 03:03:42;;;;;;;29.60;17.23;;;;;;;6.72;72.05;102155.01;1806763;78;27475;-62
2022/10/29 03:06:15;;;;;;;31.52;16.00;;;;;;;6.68;71.72;102157.95;1758526;81;25711;-62
2022/10/29 03:08:43;;;;;;;31.97;15.53;;;;;;;6.64;71.67;102167.05;1757433;81;25725;-62
2022/10/29 03:11:11;;;;;;;29.77;16.12;;;;;;;6.62;71.73;102163.13;1789916;80;25841;-62
2022/10/29 03:13:39;;;;;;;30.88;15.53;;;;;;;6.61;71.76;102161.84;1758648;81;25684;-62
2022/10/29 03:16:06;;;;;;;29.42;15.25;;;;;;;6.56;71.65;102158.06;1789921;80;27349;-62
2022/10/29 03:18:33;;;;;;;26.25;16.15;;;;;;;6.52;71.57;102160.02;1758689;81;25775;-62
2022/10/29 03:21:00;;;;;;;32.70;16.30;;;;;;;6.48;71.41;102168.27;1789762;80;25762;-61
2022/10/29 03:23:28;;;;;;;31.93;15.00;;;;;;;6.41;71.45;102166.36;1758402;81;25807;-63
2022/10/29 03:25:57;;;;;;;31.97;16.40;;;;;;;6.35;71.39;102159.53;1789964;80;25522;-61
2022/10/29 03:28:26;;;;;;;30.17;16.15;;;;;;;6.31;71.59;102153.92;1751913;80;27566;-62
2022/10/29 03:30:54;;;;;;;39.83;17.87;;;;;;;6.29;71.70;102157.62;1777164;80;25787;-63
2022/10/29 03:33:21;;;;;;;28.83;17.15;;;;;;;6.28;71.77;102154.06;1756958;81;25722;-62
2022/10/29 03:35:48;;;;;;;28.32;16.05;;;;;;;6.25;71.79;102165.77;1789869;80;25843;-62
2022/10/29 03:38:16;;;;;;;28.15;16.30;;;;;;;6.21;71.83;102158.86;1758519;81;25906;-62
2022/10/29 03:40:43;;;;;;;27.25;15.95;;;;;;;6.15;71.64;102152.45;1789974;80;27479;-63
2022/10/29 03:43:10;;;;;;;36.00;16.85;;;;;;;6.08;71.69;102145.22;1789254;80;25776;-62
2022/10/29 03:45:37;;;;;;;28.15;17.57;;;;;;;6.04;71.77;102150.30;1749294;81;25729;-62
2022/10/29 03:48:05;;;;;;;30.23;17.90;;;;;;;6.02;71.97;102145.48;1776833;80;26604;-63
2022/10/29 03:50:35;;;;;;;28.83;16.07;;;;;;;6.03;71.99;102145.89;1762190;80;25751;-63
2022/10/29 03:53:02;;;;;;;30.15;16.12;;;;;;;6.02;72.15;102136.62;1760609;81;28342;-62
2022/10/29 03:55:34;;;;;;;29.30;17.50;;;;;;;6.03;72.52;102139.21;1760003;81;25500;-63
2022/10/29 03:58:01;;;;;;;32.93;19.40;;;;;;;6.06;72.75;102132.84;1775570;80;25739;-62
2022/10/29 04:00:28;;;;;;;32.67;16.75;;;;;;;6.07;72.85;102127.45;1787480;80;26529;-62
2022/10/29 04:02:56;;;;;;;38.75;17.48;;;;;;;6.10;73.03;102129.11;1790047;79;25505;-61
2022/10/29 04:05:25;;;;;;;30.02;17.00;;;;;;;6.11;72.95;102128.17;1794657;79;27488;-62
2022/10/29 04:07:58;;;;;;;31.97;16.67;;;;;;;6.09;72.93;102126.03;1794265;79;25716;-61
2022/10/29 04:10:26;;;;;;;44.65;17.30;;;;;;;6.13;73.12;102128.09;1793697;79;26472;-63
2022/10/29 04:12:53;;;;;;;42.90;16.15;;;;;;;6.16;73.26;102132.81;1795064;79;28255;-61
2022/10/29 04:15:20;;;;;;;41.00;18.95;;;;;;;6.19;73.34;102134.01;1794895;79;25733;-62
2022/10/29 04:17:50;;;;;;;37.85;17.07;;;;;;;6.20;73.08;102136.20;1795043;79;28082;-61
2022/10/29 04:20:17;;;;;;;36.70;18.98;;;;;;;6.20;73.17;102129.06;1794219;79;25708;-62
2022/10/29 04:22:44;;;;;;;32.20;16.80;;;;;;;6.22;73.28;102127.19;1794603;79;25781;-62
2022/10/29 04:25:11;;;;;;;31.93;16.67;;;;;;;6.25;73.25;102128.36;1794656;79;26016;-62
2022/10/29 04:27:39;;;;;;;31.05;17.23;;;;;;;6.31;73.45;102135.70;1794939;79;25893;-63
2022/10/29 04:30:09;;;;;;;29.07;16.93;;;;;;;6.28;73.23;102138.02;1794402;79;28568;-62
2022/10/29 04:32:36;;;;;;;34.10;18.32;;;;;;;6.29;73.39;102122.39;1795095;79;25729;-62
2022/10/29 04:35:04;;;;;;;31.87;16.55;;;;;;;6.30;73.23;102132.63;1794655;79;25768;-63
2022/10/29 04:37:31;;;;;;;30.43;16.67;;;;;;;6.32;73.14;102132.09;1795071;79;25879;-62
2022/10/29 04:39:58;;;;;;;30.50;16.17;;;;;;;6.33;73.12;102135.13;1794542;79;25741;-62
2022/10/29 04:42:25;;;;;;;27.73;16.65;;;;;;;6.33;73.02;102137.80;1794929;79;28590;-62
2022/10/29 04:44:53;;;;;;;34.05;17.35;;;;;;;6.31;72.94;102127.67;1794555;79;26552;-62
2022/10/29 04:47:19;;;;;;;37.53;16.90;;;;;;;6.31;72.88;102126.34;1793643;79;26069;-61
2022/10/29 04:49:46;;;;;;;28.45;16.82;;;;;;;6.31;72.77;102129.02;1793482;80;25825;-62
2022/10/29 04:52:13;;;;;;;35.30;17.92;;;;;;;6.30;72.82;102132.14;1793700;80;25788;-62
2022/10/29 04:54:41;;;;;;;24.77;15.43;;;;;;;6.29;72.61;102134.41;1793586;80;27483;-62
2022/10/29 04:57:08;;;;;;;34.35;17.10;;;;;;;6.23;72.32;102130.23;1778419;79;25763;-62
2022/10/29 04:59:35;;;;;;;38.40;18.35;;;;;;;6.18;72.24;102138.09;1799621;79;25702;-62
2022/10/29 05:02:04;;;;;;;35.80;16.40;;;;;;;6.13;72.36;102138.32;1799626;79;26615;-62
2022/10/29 05:04:30;;;;;;;36.88;18.27;;;;;;;6.09;72.19;102140.28;1793730;79;25758;-62
2022/10/29 05:06:59;;;;;;;31.73;16.25;;;;;;;6.06;72.10;102142.20;1793306;80;27528;-62
2022/10/29 05:09:26;;;;;;;41.15;19.40;;;;;;;6.03;72.21;102141.03;1793412;80;25833;-61
2022/10/29 05:11:53;;;;;;;43.73;18.75;;;;;;;6.01;72.42;102137.08;1793550;80;25484;-63
2022/10/29 05:14:20;;;;;;;35.95;18.98;;;;;;;6.01;72.52;102134.89;1793519;80;25849;-62
2022/10/29 05:16:47;;;;;;;28.83;17.85;;;;;;;5.94;72.44;102135.16;1793482;80;25969;-61
2022/10/29 05:19:14;;;;;;;28.45;16.62;;;;;;;5.97;72.55;102150.16;1793425;80;27480;-62
2022/10/29 05:21:44;;;;;;;36.63;19.45;;;;;;;5.94;72.43;102155.19;1791563;80;25769;-62
2022/10/29 05:24:12;;;;;;;53.48;18.42;;;;;;;5.91;72.26;102166.00;1793573;80;25722;-64
2022/10/29 05:26:39;;;;;;;54.58;18.85;;;;;;;5.85;72.23;102168.97;1793411;80;26980;-64
2022/10/29 05:29:06;;;;;;;28.23;15.93;;;;;;;5.84;72.39;102169.91;1788823;80;25807;-62
2022/10/29 05:31:34;;;;;;;35.85;16.57;;;;;;;5.85;72.56;102166.75;1793489;80;27705;-64
2022/10/29 05:34:01;;;;;;;53.83;18.15;;;;;;;5.88;72.77;102168.81;1793740;79;25826;-62
2022/10/29 05:36:30;;;;;;;29.87;16.50;;;;;;;5.92;73.04;102165.07;1793385;80;25761;-63
2022/10/29 05:38:57;;;;;;;38.45;15.65;;;;;;;5.98;73.22;102175.05;1793751;80;26972;-61
2022/10/29 05:41:28;;;;;;;35.23;15.90;;;;;;;6.03;73.37;102167.75;1793534;80;25437;-62
2022/10/29 05:43:55;;;;;;;28.47;15.30;;;;;;;6.09;73.51;102172.34;1793845;79;27436;-62
2022/10/29 05:46:22;;;;;;;29.72;15.58;;;;;;;6.19;73.83;102167.86;1793048;80;25854;-64
2022/10/29 05:48:49;;;;;;;29.80;15.55;;;;;;;6.28;74.07;102177.27;1793460;80;25822;-62
2022/10/29 05:51:21;;;;;;;25.68;16.42;;;;;;;6.39;74.30;102180.29;1771650;80;26567;-63
2022/10/29 05:53:47;;;;;;;28.70;14.78;;;;;;;6.53;74.36;102179.14;1760725;80;25787;-62
2022/10/29 05:56:16;;;;;;;27.82;15.98;;;;;;;6.66;74.41;102177.20;1761792;81;27423;-63
2022/10/29 05:58:43;;;;;;;56.28;19.50;;;;;;;6.85;74.60;102175.34;1817993;78;25792;-62
2022/10/29 06:01:11;;;;;;;43.65;20.95;;;;;;;6.96;74.58;102161.42;1818620;78;25710;-63
2022/10/29 06:03:39;;;;;;;47.62;20.77;;;;;;;7.04;74.44;102159.21;1786562;80;25860;-62
2022/10/29 06:06:09;;;;;;;53.52;18.55;;;;;;;7.15;74.53;102168.02;1778013;80;25924;-64
2022/10/29 06:08:37;;;;;;;41.58;19.15;;;;;;;7.26;74.69;102165.25;1777803;80;28006;-62
2022/10/29 06:11:07;;;;;;;44.58;17.90;;;;;;;7.38;74.97;102162.41;1778193;80;25695;-64
2022/10/29 06:13:34;;;;;;;40.05;17.52;;;;;;;7.48;74.92;102165.87;1777989;80;26129;-63
2022/10/29 06:16:03;;;;;;;29.25;16.90;;;;;;;7.58;75.10;102156.86;1777779;80;25857;-63
2022/10/29 06:18:30;;;;;;;47.23;18.35;;;;;;;7.70;75.07;102158.00;1777598;80;25982;-62
2022/10/29 06:21:00;;;;;;;34.27;18.23;;;;;;;7.77;74.97;102160.73;1777634;80;28042;-61
2022/10/29 06:23:28;;;;;;;37.60;19.30;;;;;;;7.86;75.03;102162.05;1778005;79;25924;-62
2022/10/29 06:26:02;;;;;;;45.58;20.32;;;;;;;7.92;74.98;102171.09;1777824;80;25831;-61
2022/10/29 06:28:29;;;;;;;35.65;19.55;;;;;;;7.97;74.67;102168.16;1777646;80;26635;-62
2022/10/29 06:30:58;;;;;;;40.10;20.62;;;;;;;7.99;74.57;102170.28;1777996;80;25743;-63
2022/10/29 06:33:25;;;;;;;37.28;20.43;;;;;;;7.97;74.48;102176.19;1748175;80;28692;-63
2022/10/29 06:35:59;;;;;;;37.48;20.17;;;;;;;7.96;74.34;102177.14;1747157;80;26048;-62
2022/10/29 06:38:27;;;;;;;30.62;20.00;;;;;;;8.01;74.47;102176.42;1747544;80;25495;-63
2022/10/29 06:40:57;;;;;;;28.90;19.23;;;;;;;8.04;74.53;102175.39;1776809;80;25817;-62
2022/10/29 06:43:25;;;;;;;29.30;19.50;;;;;;;8.05;74.62;102173.10;1747201;80;26026;-61
2022/10/29 06:45:52;;;;;;;41.05;20.92;;;;;;;8.06;74.58;102185.06;1777968;80;27451;-62
2022/10/29 06:48:19;;;;;;;39.18;20.43;;;;;;;8.11;74.83;102183.47;1777769;80;25699;-62
2022/10/29 06:50:46;;;;;;;36.45;21.50;;;;;;;8.15;74.95;102179.19;1770069;80;25782;-63
2022/10/29 06:53:15;;;;;;;34.25;20.65;;;;;;;8.20;75.16;102178.94;1761396;81;25872;-62
2022/10/29 06:55:41;;;;;;;35.38;20.75;;;;;;;8.25;75.08;102172.83;1761580;81;25824;-63
2022/10/29 06:58:15;;;;;;;40.17;20.92;;;;;;;8.32;75.37;102164.45;1781336;80;27470;-61
2022/10/29 07:00:43;;;;;;;36.50;18.77;;;;;;;8.42;75.68;102165.17;1793509;80;25780;-62
2022/10/29 07:03:15;;;;;;;37.75;19.75;;;;;;;8.53;76.30;102163.23;1793454;80;25771;-63
2022/10/29 07:05:43;;;;;;;33.08;18.90;;;;;;;8.65;76.44;102156.78;1793526;80;25877;-63
2022/10/29 07:08:10;;;;;;;31.27;18.62;;;;;;;8.78;76.47;102153.78;1793779;80;25809;-61
2022/10/29 07:10:38;;;;;;;32.73;18.17;;;;;;;8.90;76.42;102153.03;1793423;80;27544;-62
2022/10/29 07:13:05;;;;;;;38.85;20.43;;;;;;;9.04;77.03;102157.58;1793768;80;25442;-62
2022/10/29 07:15:31;;;;;;;32.85;18.02;;;;;;;9.15;76.57;102153.39;1793736;79;25713;-61
2022/10/29 07:18:06;;;;;;;32.23;17.87;;;;;;;9.28;76.65;102159.73;1793564;80;25794;-63
2022/10/29 07:20:37;;;;;;;38.08;19.85;;;;;;;9.44;76.80;102154.78;1793902;79;25787;-62
2022/10/29 07:23:05;;;;;;;46.95;21.62;;;;;;;9.59;76.83;102150.28;1793737;80;28312;-62
2022/10/29 07:25:35;;;;;;;47.60;24.60;;;;;;;9.75;76.88;102149.70;1793490;80;25773;-63
2022/10/29 07:28:13;;;;;;;94.72;38.02;;;;;;;9.90;76.78;102149.21;1793807;80;25737;-63
2022/10/29 07:30:40;;;;;;;113.05;40.20;;;;;;;10.06;76.52;102145.53;1793669;80;26482;-63
2022/10/29 07:33:07;;;;;;;116.55;44.63;;;;;;;10.21;76.23;102142.33;1793681;80;25782;-62
2022/10/29 07:35:34;;;;;;;110.55;41.53;;;;;;;10.35;76.15;102142.28;1793814;80;27436;-62
2022/10/29 07:38:04;;;;;;;83.50;33.83;;;;;;;10.47;75.65;102150.05;1793505;80;25865;-62
2022/10/29 07:40:32;;;;;;;64.87;31.40;;;;;;;10.61;75.63;102158.08;1793787;79;25743;-62
2022/10/29 07:46:01;;;;;;;44.48;22.25;;;;;;;10.93;74.61;102155.03;1774428;80;25746;-63
2022/10/29 07:48:28;;;;;;;38.25;20.37;;;;;;;11.10;74.34;102153.89;1767440;79;28254;-63
2022/10/29 07:51:01;;;;;;;46.60;20.08;;;;;;;11.19;73.48;102144.30;1785105;79;25838;-61
2022/10/29 07:53:30;;;;;;;34.75;19.87;;;;;;;11.31;72.98;102143.07;1799598;79;25702;-62
2022/10/29 07:55:58;;;;;;;41.50;19.70;;;;;;;11.40;72.59;102141.08;1767903;79;25871;-62
2022/10/29 07:58:26;;;;;;;33.70;19.30;;;;;;;11.54;72.54;102140.95;1799646;79;25702;-61
2022/10/29 08:00:53;;;;;;;38.75;19.65;;;;;;;11.70;72.40;102133.98;1799648;79;27584;-62
2022/10/29 08:03:21;;;;;;;45.60;23.42;;;;;;;11.86;72.06;102133.75;1798493;79;25712;-63
2022/10/29 08:05:48;;;;;;;41.45;21.57;;;;;;;12.04;71.73;102133.42;1797016;79;25534;-63
2022/10/29 08:08:16;;;;;;;48.78;20.68;;;;;;;12.18;70.85;102126.50;1797547;79;26574;-63
2022/10/29 08:10:44;;;;;;;48.17;22.37;;;;;;;12.33;70.67;102120.94;1797156;79;25795;-62
2022/10/29 08:13:10;;;;;;;43.00;22.93;;;;;;;12.51;70.58;102118.70;1797469;79;27439;-62
2022/10/29 08:15:38;;;;;;;43.70;24.67;;;;;;;12.68;69.77;102113.39;1797266;79;26236;-62
2022/10/29 08:18:17;;;;;;;59.15;25.82;;;;;;;12.84;69.41;102104.48;1797125;79;25763;-63
2022/10/29 08:20:44;;;;;;;61.80;26.57;;;;;;;13.01;69.06;102096.90;1797598;79;25750;-62
2022/10/29 08:23:13;;;;;;;46.65;24.57;;;;;;;13.26;69.09;102097.19;1797364;79;25710;-62
2022/10/29 08:25:41;;;;;;;47.88;22.80;;;;;;;13.50;68.73;102094.02;1797118;79;27495;-62
2022/10/29 08:28:11;;;;;;;60.05;23.45;;;;;;;13.76;68.31;102091.92;1797457;79;25735;-63
2022/10/29 08:30:40;;;;;;;49.42;26.52;;;;;;;14.03;67.88;102098.25;1797413;79;25247;-63
2022/10/29 08:33:08;;;;;;;48.58;21.52;;;;;;;14.29;66.17;102099.31;1797074;79;25854;-63
2022/10/29 08:35:35;;;;;;;44.67;21.97;;;;;;;14.51;66.09;102090.73;1797565;79;25833;-63
2022/10/29 08:38:02;;;;;;;62.55;26.77;;;;;;;14.77;65.35;102090.38;1797037;79;27845;-63
2022/10/29 08:40:59;;;;;;;50.17;24.72;;;;;;;15.04;64.75;102093.94;1796954;79;25800;-61
2022/10/29 08:43:49;;;;;;;51.50;22.22;;;;;;;15.29;64.75;102091.27;1796909;79;25810;-62
2022/10/29 08:46:45;;;;;;;36.90;21.85;;;;;;;15.68;63.72;102093.31;1797432;79;26130;-62
2022/10/29 08:49:26;;;;;;;39.65;22.85;;;;;;;16.20;62.48;102091.80;1788690;79;25690;-62
2022/10/29 08:52:08;;;;;;;37.65;20.25;;;;;;;17.09;61.07;102090.42;1769307;79;27663;-62
2022/10/29 08:54:39;;;;;;;35.25;19.12;;;;;;;18.13;58.25;102085.30;1767414;81;25702;-62
2022/10/29 08:57:11;;;;;;;41.18;18.15;;;;;;;19.00;57.29;102082.01;1770356;80;25709;-62
2022/10/29 08:59:58;;;;;;;50.20;18.40;;;;;;;19.76;56.82;102079.50;1782725;80;25968;-63
2022/10/29 09:02:25;;;;;;;32.85;17.23;;;;;;;20.37;54.69;102067.86;1784023;79;26042;-61
2022/10/29 09:04:52;;;;;;;33.38;17.45;;;;;;;21.11;53.80;102070.58;1783860;80;28349;-63
2022/10/29 09:07:54;;;;;;;33.65;15.93;;;;;;;21.83;52.88;102075.62;1783999;80;25775;-62
2022/10/29 09:10:52;;;;;;;33.00;14.78;;;;;;;22.54;50.22;102076.58;1783903;79;25688;-63
2022/10/29 09:13:43;;;;;;;24.00;15.00;;;;;;;23.10;48.21;102072.09;1782268;79;25729;-63
2022/10/29 09:16:44;;;;;;;34.10;15.65;;;;;;;23.82;48.23;102066.94;1765288;80;25382;-63
2022/10/29 09:19:47;;;;;;;35.70;14.93;;;;;;;24.30;44.96;102063.67;1783758;80;28187;-63
2022/10/29 09:22:37;;;;;;;28.75;14.20;;;;;;;24.71;43.92;102060.28;1783835;80;25727;-62
2022/10/29 09:25:23;;;;;;;26.55;14.83;;;;;;;25.15;40.93;102049.98;1783674;80;25266;-62
2022/10/29 09:28:10;;;;;;;22.00;13.93;;;;;;;25.43;41.23;102054.61;1783779;80;25739;-63
2022/10/29 09:30:52;;;;;;;21.85;13.30;;;;;;;25.61;39.75;102042.51;1753871;80;25648;-63
2022/10/29 09:33:23;;;;;;;19.52;12.45;;;;;;;26.13;41.40;102044.83;1783389;79;27485;-63
2022/10/29 09:35:57;;;;;;;21.65;13.25;;;;;;;26.63;39.18;102037.50;1783693;80;25779;-63
2022/10/29 09:38:32;;;;;;;36.30;13.00;;;;;;;26.90;37.58;102036.67;1783764;80;25722;-63
2022/10/29 09:41:02;;;;;;;24.70;12.13;;;;;;;27.05;35.99;102031.75;1783657;80;25779;-64
2022/10/29 09:43:47;;;;;;;23.80;11.85;;;;;;;27.12;35.57;102020.14;1755506;80;26128;-62
2022/10/29 09:46:41;;;;;;;23.55;10.93;;;;;;;27.51;36.38;102019.40;1783757;80;27872;-63
2022/10/29 09:49:23;;;;;;;17.60;10.18;;;;;;;28.06;36.30;102007.83;1780043;79;25814;-63
2022/10/29 09:52:04;;;;;;;19.92;10.43;;;;;;;28.50;34.09;102002.38;1782869;80;25837;-62
2022/10/29 09:54:33;;;;;;;27.05;10.00;;;;;;;28.81;32.17;101995.93;1793393;80;25802;-63
2022/10/29 09:57:02;;;;;;;16.97;8.88;;;;;;;28.63;32.72;101991.20;1793556;80;25793;-63
2022/10/29 09:59:43;;;;;;;25.05;10.10;;;;;;;29.10;32.88;101989.84;1793279;80;27464;-62
2022/10/29 10:02:28;;;;;;;20.35;10.32;;;;;;;29.59;32.70;101986.59;1793374;80;25869;-62
2022/10/29 10:05:13;;;;;;;26.27;10.65;;;;;;;29.97;32.07;101981.27;1793634;80;25741;-62
2022/10/29 10:07:46;;;;;;;30.52;10.35;;;;;;;30.12;31.14;101978.57;1793217;80;25801;-63
2022/10/29 10:10:22;;;;;;;21.25;9.68;;;;;;;30.52;31.42;101970.12;1789731;80;32871;-63
2022/10/29 10:12:50;;;;;;;18.42;9.88;;;;;;;30.83;30.52;101970.27;1793213;80;27475;-63
2022/10/29 10:15:25;;;;;;;17.55;9.88;;;;;;;31.17;29.44;101970.46;1760220;80;26610;-63
2022/10/29 10:18:08;;;;;;;19.67;10.13;;;;;;;31.30;29.08;101967.11;1793601;80;25710;-63
2022/10/29 10:20:40;;;;;;;17.60;9.95;;;;;;;31.50;28.83;101965.27;1791626;80;25796;-64
2022/10/29 10:23:23;;;;;;;20.08;10.65;;;;;;;31.82;28.64;101960.05;1793669;80;25766;-64
2022/10/29 10:25:54;;;;;;;16.20;8.98;;;;;;;32.17;28.11;101956.75;1793527;80;27491;-63
2022/10/29 10:28:33;;;;;;;19.35;9.48;;;;;;;32.43;27.62;101941.30;1793390;80;26074;-63
2022/10/29 10:31:12;;;;;;;15.88;9.38;;;;;;;32.67;27.62;101942.49;1793676;80;25845;-63
2022/10/29 10:33:54;;;;;;;19.40;9.55;;;;;;;32.92;26.72;101934.20;1793454;80;26686;-63
2022/10/29 10:36:25;;;;;;;24.32;9.20;;;;;;;33.01;24.17;101934.57;1793593;80;25711;-62
2022/10/29 10:38:58;;;;;;;16.90;8.40;;;;;;;32.60;25.68;101932.92;1793292;80;27462;-63
2022/10/29 10:41:30;;;;;;;14.30;8.25;;;;;;;32.55;25.97;101930.05;1793250;80;25779;-62
2022/10/29 10:44:01;;;;;;;16.40;8.08;;;;;;;32.86;25.85;101928.25;1793622;80;25807;-63
2022/10/29 10:46:41;;;;;;;22.70;8.30;;;;;;;33.09;25.67;101922.42;1793780;80;26437;-64
2022/10/29 10:49:16;;;;;;;21.15;7.75;;;;;;;33.31;24.54;101913.73;1783267;80;25846;-63
2022/10/29 10:51:53;;;;;;;23.25;8.00;;;;;;;33.16;25.13;101907.43;1772079;79;27444;-62
2022/10/29 10:54:37;;;;;;;21.82;8.48;;;;;;;33.30;24.89;101905.07;1770716;79;25739;-62
2022/10/29 10:57:15;;;;;;;16.45;9.05;;;;;;;33.76;24.89;101896.31;1771980;80;25835;-64
2022/10/29 11:00:04;;;;;;;26.68;13.00;;;;;;;34.16;24.20;101889.41;1780803;80;25851;-63
2022/10/29 11:02:59;;;;;;;15.88;8.35;;;;;;;34.45;24.16;101884.86;1781272;80;25511;-64
2022/10/29 11:05:50;;;;;;;16.07;7.28;;;;;;;34.68;23.92;101877.98;1781200;80;27538;-62
2022/10/29 11:08:42;;;;;;;14.00;8.35;;;;;;;34.79;23.27;101868.50;1769748;80;25778;-64
2022/10/29 11:11:15;;;;;;;15.20;8.03;;;;;;;34.78;22.72;101861.27;1781550;80;25696;-63
2022/10/29 11:13:43;;;;;;;13.68;8.00;;;;;;;34.35;23.03;101865.22;1752871;80;26467;-63
2022/10/29 11:16:30;;;;;;;24.07;8.45;;;;;;;34.19;23.04;101855.37;1781377;80;25719;-64
2022/10/29 11:19:23;;;;;;;19.77;8.23;;;;;;;34.04;23.78;101849.12;1781166;80;28183;-64
2022/10/29 11:22:05;;;;;;;21.00;8.75;;;;;;;33.78;23.29;101850.86;1780884;79;25718;-63
2022/10/29 11:24:50;;;;;;;24.18;8.13;;;;;;;33.49;23.81;101845.06;1764401;80;25823;-62
2022/10/29 11:27:56;;;;;;;14.55;8.68;;;;;;;33.32;24.29;101833.16;1781618;80;26882;-63
2022/10/29 11:30:24;;;;;;;21.65;8.45;;;;;;;33.07;24.07;101822.05;1781033;79;25474;-64
2022/10/29 11:33:34;;;;;;;23.22;7.03;;;;;;;32.65;23.84;101829.61;1781460;79;27424;-63
2022/10/29 11:36:09;;;;;;;20.17;6.87;;;;;;;32.09;24.49;101829.98;1780789;80;25722;-63
2022/10/29 11:38:53;;;;;;;20.17;6.80;;;;;;;31.65;24.50;101828.44;1780684;79;25730;-63
2022/10/29 11:41:34;;;;;;;13.65;5.58;;;;;;;31.12;24.68;101825.86;1765550;80;26479;-63
2022/10/29 11:44:01;;;;;;;15.20;6.65;;;;;;;30.74;24.65;101810.13;1781138;80;25614;-64